sensor_id;sensor_type;location;lat;lon;timestamp;P1;durP1;ratioP1;P2;durP2;ratioP2
29422;SDS011;16399;51.686;8.684;2022-07-10T00:02:42;4.15;;;1.20;;
29422;SDS011;16399;51.686;8.684;2022-07-10T00:05:45;5.42;;;1.07;;
29422;SDS011;16399;51.686;8.684;2022-07-10T00:08:47;3.33;;;0.85;;
29422;SDS011;16399;51.686;8.684;2022-07-10T00:11:49;5.20;;;1.05;;
29422;SDS011;16399;51.686;8.684;2022-07-10T00:14:52;8.25;;;1.77;;
29422;SDS011;16399;51.686;8.684;2022-07-10T00:17:54;3.42;;;1.05;;
29422;SDS011;16399;51.686;8.684;2022-07-10T00:20:56;3.75;;;0.90;;
29422;SDS011;16399;51.686;8.684;2022-07-10T00:23:59;2.42;;;0.80;;
29422;SDS011;16399;51.686;8.684;2022-07-10T00:27:01;6.70;;;1.00;;
29422;SDS011;16399;51.686;8.684;2022-07-10T00:30:03;5.75;;;1.00;;
29422;SDS011;16399;51.686;8.684;2022-07-10T00:33:07;5.33;;;1.17;;
29422;SDS011;16399;51.686;8.684;2022-07-10T00:36:09;4.47;;;0.80;;
29422;SDS011;16399;51.686;8.684;2022-07-10T00:39:11;5.08;;;0.98;;
29422;SDS011;16399;51.686;8.684;2022-07-10T00:42:14;4.78;;;1.22;;
29422;SDS011;16399;51.686;8.684;2022-07-10T00:45:16;4.28;;;1.00;;
29422;SDS011;16399;51.686;8.684;2022-07-10T00:48:19;5.30;;;0.98;;
29422;SDS011;16399;51.686;8.684;2022-07-10T00:51:22;3.85;;;0.80;;
29422;SDS011;16399;51.686;8.684;2022-07-10T00:57:28;3.90;;;1.00;;
29422;SDS011;16399;51.686;8.684;2022-07-10T01:00:30;6.47;;;1.20;;
29422;SDS011;16399;51.686;8.684;2022-07-10T01:03:33;4.25;;;1.00;;
29422;SDS011;16399;51.686;8.684;2022-07-10T01:06:35;4.55;;;0.90;;
29422;SDS011;16399;51.686;8.684;2022-07-10T01:09:37;4.22;;;0.90;;
29422;SDS011;16399;51.686;8.684;2022-07-10T01:12:40;2.40;;;0.80;;
29422;SDS011;16399;51.686;8.684;2022-07-10T01:15:43;5.05;;;0.90;;
29422;SDS011;16399;51.686;8.684;2022-07-10T01:18:47;2.98;;;0.82;;
29422;SDS011;16399;51.686;8.684;2022-07-10T01:21:49;5.45;;;1.10;;
29422;SDS011;16399;51.686;8.684;2022-07-10T01:24:52;3.40;;;1.00;;
29422;SDS011;16399;51.686;8.684;2022-07-10T01:27:55;6.42;;;0.90;;
29422;SDS011;16399;51.686;8.684;2022-07-10T01:30:57;5.10;;;0.82;;
29422;SDS011;16399;51.686;8.684;2022-07-10T01:34:00;4.92;;;1.02;;
29422;SDS011;16399;51.686;8.684;2022-07-10T01:37:03;4.87;;;0.80;;
29422;SDS011;16399;51.686;8.684;2022-07-10T01:40:06;4.33;;;0.90;;
29422;SDS011;16399;51.686;8.684;2022-07-10T01:43:09;4.40;;;0.90;;
29422;SDS011;16399;51.686;8.684;2022-07-10T01:46:12;3.95;;;1.00;;
29422;SDS011;16399;51.686;8.684;2022-07-10T01:49:14;3.60;;;0.82;;
29422;SDS011;16399;51.686;8.684;2022-07-10T01:52:17;4.25;;;1.40;;
29422;SDS011;16399;51.686;8.684;2022-07-10T01:55:19;4.97;;;0.85;;
29422;SDS011;16399;51.686;8.684;2022-07-10T01:58:21;7.75;;;1.00;;
29422;SDS011;16399;51.686;8.684;2022-07-10T02:01:24;7.67;;;1.35;;
29422;SDS011;16399;51.686;8.684;2022-07-10T02:04:26;7.60;;;1.27;;
29422;SDS011;16399;51.686;8.684;2022-07-10T02:07:44;2.85;;;0.88;;
29422;SDS011;16399;51.686;8.684;2022-07-10T02:10:46;5.53;;;0.90;;
29422;SDS011;16399;51.686;8.684;2022-07-10T02:13:49;5.12;;;0.98;;
29422;SDS011;16399;51.686;8.684;2022-07-10T02:16:52;6.28;;;1.12;;
29422;SDS011;16399;51.686;8.684;2022-07-10T02:19:54;6.47;;;1.42;;
29422;SDS011;16399;51.686;8.684;2022-07-10T02:22:56;7.50;;;0.95;;
29422;SDS011;16399;51.686;8.684;2022-07-10T02:25:59;8.03;;;1.45;;
29422;SDS011;16399;51.686;8.684;2022-07-10T02:29:01;7.97;;;1.60;;
29422;SDS011;16399;51.686;8.684;2022-07-10T02:32:03;2.85;;;0.90;;
29422;SDS011;16399;51.686;8.684;2022-07-10T02:35:06;5.62;;;0.80;;
29422;SDS011;16399;51.686;8.684;2022-07-10T02:38:08;3.25;;;0.60;;
29422;SDS011;16399;51.686;8.684;2022-07-10T02:41:11;7.08;;;1.15;;
29422;SDS011;16399;51.686;8.684;2022-07-10T02:44:13;15.25;;;1.32;;
29422;SDS011;16399;51.686;8.684;2022-07-10T02:47:16;7.78;;;1.20;;
29422;SDS011;16399;51.686;8.684;2022-07-10T02:50:18;6.87;;;1.00;;
29422;SDS011;16399;51.686;8.684;2022-07-10T02:53:21;6.20;;;1.05;;
29422;SDS011;16399;51.686;8.684;2022-07-10T02:56:23;9.18;;;1.00;;
29422;SDS011;16399;51.686;8.684;2022-07-10T02:59:25;6.60;;;1.05;;
29422;SDS011;16399;51.686;8.684;2022-07-10T03:02:28;6.17;;;1.02;;
29422;SDS011;16399;51.686;8.684;2022-07-10T03:05:30;7.10;;;1.07;;
29422;SDS011;16399;51.686;8.684;2022-07-10T03:08:32;4.47;;;0.90;;
29422;SDS011;16399;51.686;8.684;2022-07-10T03:11:35;6.28;;;1.25;;
29422;SDS011;16399;51.686;8.684;2022-07-10T03:14:37;5.03;;;1.20;;
29422;SDS011;16399;51.686;8.684;2022-07-10T03:17:39;8.00;;;1.22;;
29422;SDS011;16399;51.686;8.684;2022-07-10T03:20:42;9.00;;;1.20;;
29422;SDS011;16399;51.686;8.684;2022-07-10T03:23:44;5.40;;;1.00;;
29422;SDS011;16399;51.686;8.684;2022-07-10T03:26:46;4.87;;;1.20;;
29422;SDS011;16399;51.686;8.684;2022-07-10T03:29:49;8.10;;;1.37;;
29422;SDS011;16399;51.686;8.684;2022-07-10T03:32:51;6.05;;;1.30;;
29422;SDS011;16399;51.686;8.684;2022-07-10T03:35:53;5.65;;;1.17;;
29422;SDS011;16399;51.686;8.684;2022-07-10T03:38:56;5.80;;;1.10;;
29422;SDS011;16399;51.686;8.684;2022-07-10T03:41:58;6.50;;;0.98;;
29422;SDS011;16399;51.686;8.684;2022-07-10T03:45:00;6.22;;;1.02;;
29422;SDS011;16399;51.686;8.684;2022-07-10T03:48:02;5.95;;;1.00;;
29422;SDS011;16399;51.686;8.684;2022-07-10T03:51:05;9.95;;;1.15;;
29422;SDS011;16399;51.686;8.684;2022-07-10T03:54:07;5.10;;;1.10;;
29422;SDS011;16399;51.686;8.684;2022-07-10T03:57:10;5.20;;;0.90;;
29422;SDS011;16399;51.686;8.684;2022-07-10T04:00:30;4.95;;;1.02;;
29422;SDS011;16399;51.686;8.684;2022-07-10T04:03:32;9.53;;;1.20;;
29422;SDS011;16399;51.686;8.684;2022-07-10T04:06:35;6.05;;;1.32;;
29422;SDS011;16399;51.686;8.684;2022-07-10T04:09:39;7.70;;;0.93;;
29422;SDS011;16399;51.686;8.684;2022-07-10T04:12:41;11.70;;;1.92;;
29422;SDS011;16399;51.686;8.684;2022-07-10T04:15:44;5.87;;;1.00;;
29422;SDS011;16399;51.686;8.684;2022-07-10T04:18:47;5.62;;;1.32;;
29422;SDS011;16399;51.686;8.684;2022-07-10T04:21:50;5.75;;;1.22;;
29422;SDS011;16399;51.686;8.684;2022-07-10T04:24:52;5.10;;;1.15;;
29422;SDS011;16399;51.686;8.684;2022-07-10T04:27:55;5.42;;;1.25;;
29422;SDS011;16399;51.686;8.684;2022-07-10T04:30:58;4.67;;;1.05;;
29422;SDS011;16399;51.686;8.684;2022-07-10T04:34:00;3.27;;;1.10;;
29422;SDS011;16399;51.686;8.684;2022-07-10T04:37:03;12.40;;;1.22;;
29422;SDS011;16399;51.686;8.684;2022-07-10T04:40:07;7.97;;;1.05;;
29422;SDS011;16399;51.686;8.684;2022-07-10T04:43:10;3.92;;;1.02;;
29422;SDS011;16399;51.686;8.684;2022-07-10T04:46:13;3.60;;;1.00;;
29422;SDS011;16399;51.686;8.684;2022-07-10T04:49:15;4.90;;;1.00;;
29422;SDS011;16399;51.686;8.684;2022-07-10T04:52:17;5.67;;;1.20;;
29422;SDS011;16399;51.686;8.684;2022-07-10T04:55:20;5.67;;;1.15;;
29422;SDS011;16399;51.686;8.684;2022-07-10T04:58:22;4.92;;;0.95;;
29422;SDS011;16399;51.686;8.684;2022-07-10T05:01:25;7.15;;;1.30;;
29422;SDS011;16399;51.686;8.684;2022-07-10T05:04:28;4.55;;;1.00;;
29422;SDS011;16399;51.686;8.684;2022-07-10T05:07:30;6.45;;;0.95;;
29422;SDS011;16399;51.686;8.684;2022-07-10T05:10:33;9.68;;;1.22;;
29422;SDS011;16399;51.686;8.684;2022-07-10T05:13:35;5.72;;;1.30;;
29422;SDS011;16399;51.686;8.684;2022-07-10T05:16:37;7.37;;;1.12;;
29422;SDS011;16399;51.686;8.684;2022-07-10T05:19:40;6.78;;;1.12;;
29422;SDS011;16399;51.686;8.684;2022-07-10T05:22:42;6.08;;;1.20;;
29422;SDS011;16399;51.686;8.684;2022-07-10T05:25:44;5.72;;;1.55;;
29422;SDS011;16399;51.686;8.684;2022-07-10T05:28:47;5.87;;;1.22;;
29422;SDS011;16399;51.686;8.684;2022-07-10T05:31:49;2.75;;;0.90;;
29422;SDS011;16399;51.686;8.684;2022-07-10T05:34:51;6.50;;;1.15;;
29422;SDS011;16399;51.686;8.684;2022-07-10T05:37:54;4.00;;;1.00;;
29422;SDS011;16399;51.686;8.684;2022-07-10T05:40:56;4.25;;;0.98;;
29422;SDS011;16399;51.686;8.684;2022-07-10T05:43:59;3.65;;;1.12;;
29422;SDS011;16399;51.686;8.684;2022-07-10T05:47:01;5.15;;;1.10;;
29422;SDS011;16399;51.686;8.684;2022-07-10T05:50:04;6.45;;;1.20;;
29422;SDS011;16399;51.686;8.684;2022-07-10T05:53:06;6.35;;;1.50;;
29422;SDS011;16399;51.686;8.684;2022-07-10T05:56:09;6.78;;;1.10;;
29422;SDS011;16399;51.686;8.684;2022-07-10T05:59:11;5.12;;;1.10;;
29422;SDS011;16399;51.686;8.684;2022-07-10T06:02:13;12.13;;;1.60;;
29422;SDS011;16399;51.686;8.684;2022-07-10T06:05:16;8.65;;;1.32;;
29422;SDS011;16399;51.686;8.684;2022-07-10T06:08:19;7.03;;;1.07;;
29422;SDS011;16399;51.686;8.684;2022-07-10T06:11:21;3.55;;;0.90;;
29422;SDS011;16399;51.686;8.684;2022-07-10T06:14:23;5.10;;;0.88;;
29422;SDS011;16399;51.686;8.684;2022-07-10T06:17:26;8.85;;;1.92;;
29422;SDS011;16399;51.686;8.684;2022-07-10T06:20:28;5.70;;;1.07;;
29422;SDS011;16399;51.686;8.684;2022-07-10T06:23:31;6.67;;;1.20;;
29422;SDS011;16399;51.686;8.684;2022-07-10T06:26:33;4.80;;;0.93;;
29422;SDS011;16399;51.686;8.684;2022-07-10T06:29:36;8.70;;;1.32;;
29422;SDS011;16399;51.686;8.684;2022-07-10T06:32:38;6.65;;;1.55;;
29422;SDS011;16399;51.686;8.684;2022-07-10T06:35:41;9.15;;;1.20;;
29422;SDS011;16399;51.686;8.684;2022-07-10T06:38:44;5.65;;;1.30;;
29422;SDS011;16399;51.686;8.684;2022-07-10T06:41:46;6.58;;;1.12;;
29422;SDS011;16399;51.686;8.684;2022-07-10T06:44:48;7.15;;;1.10;;
29422;SDS011;16399;51.686;8.684;2022-07-10T06:47:51;7.22;;;1.27;;
29422;SDS011;16399;51.686;8.684;2022-07-10T06:50:59;9.58;;;1.37;;
29422;SDS011;16399;51.686;8.684;2022-07-10T06:54:02;8.03;;;1.50;;
29422;SDS011;16399;51.686;8.684;2022-07-10T06:57:04;9.00;;;1.77;;
29422;SDS011;16399;51.686;8.684;2022-07-10T07:00:07;3.90;;;1.00;;
29422;SDS011;16399;51.686;8.684;2022-07-10T07:03:10;5.37;;;0.85;;
29422;SDS011;16399;51.686;8.684;2022-07-10T07:06:12;5.67;;;1.17;;
29422;SDS011;16399;51.686;8.684;2022-07-10T07:09:14;7.15;;;1.22;;
29422;SDS011;16399;51.686;8.684;2022-07-10T07:12:17;6.17;;;1.00;;
29422;SDS011;16399;51.686;8.684;2022-07-10T07:15:19;6.03;;;1.10;;
29422;SDS011;16399;51.686;8.684;2022-07-10T07:18:23;7.57;;;1.33;;
29422;SDS011;16399;51.686;8.684;2022-07-10T07:21:27;6.37;;;1.10;;
29422;SDS011;16399;51.686;8.684;2022-07-10T07:24:47;10.32;;;1.60;;
29422;SDS011;16399;51.686;8.684;2022-07-10T07:27:50;4.50;;;1.37;;
29422;SDS011;16399;51.686;8.684;2022-07-10T07:30:52;5.20;;;1.02;;
29422;SDS011;16399;51.686;8.684;2022-07-10T07:33:54;8.40;;;1.25;;
29422;SDS011;16399;51.686;8.684;2022-07-10T07:36:57;4.45;;;1.12;;
29422;SDS011;16399;51.686;8.684;2022-07-10T07:39:59;9.15;;;1.62;;
29422;SDS011;16399;51.686;8.684;2022-07-10T07:43:01;4.62;;;1.27;;
29422;SDS011;16399;51.686;8.684;2022-07-10T07:46:04;7.25;;;1.35;;
29422;SDS011;16399;51.686;8.684;2022-07-10T07:49:07;4.22;;;1.27;;
29422;SDS011;16399;51.686;8.684;2022-07-10T07:52:09;8.38;;;1.60;;
29422;SDS011;16399;51.686;8.684;2022-07-10T07:55:12;6.42;;;1.15;;
29422;SDS011;16399;51.686;8.684;2022-07-10T07:58:15;7.17;;;1.10;;
29422;SDS011;16399;51.686;8.684;2022-07-10T08:01:17;8.38;;;1.42;;
29422;SDS011;16399;51.686;8.684;2022-07-10T08:04:20;6.42;;;1.32;;
29422;SDS011;16399;51.686;8.684;2022-07-10T08:07:22;9.43;;;1.25;;
29422;SDS011;16399;51.686;8.684;2022-07-10T08:10:25;8.03;;;1.22;;
29422;SDS011;16399;51.686;8.684;2022-07-10T08:13:28;5.97;;;1.10;;
29422;SDS011;16399;51.686;8.684;2022-07-10T08:16:30;12.90;;;1.50;;
29422;SDS011;16399;51.686;8.684;2022-07-10T08:19:32;5.25;;;0.90;;
29422;SDS011;16399;51.686;8.684;2022-07-10T08:22:35;8.53;;;1.62;;
29422;SDS011;16399;51.686;8.684;2022-07-10T08:25:37;7.20;;;1.20;;
29422;SDS011;16399;51.686;8.684;2022-07-10T08:28:40;11.78;;;1.57;;
29422;SDS011;16399;51.686;8.684;2022-07-10T08:31:42;11.50;;;1.62;;
29422;SDS011;16399;51.686;8.684;2022-07-10T08:34:45;11.97;;;1.17;;
29422;SDS011;16399;51.686;8.684;2022-07-10T08:37:49;6.07;;;1.10;;
29422;SDS011;16399;51.686;8.684;2022-07-10T08:40:51;4.97;;;1.25;;
29422;SDS011;16399;51.686;8.684;2022-07-10T08:43:59;4.90;;;1.02;;
29422;SDS011;16399;51.686;8.684;2022-07-10T08:47:01;5.45;;;1.10;;
29422;SDS011;16399;51.686;8.684;2022-07-10T08:50:05;5.40;;;1.20;;
29422;SDS011;16399;51.686;8.684;2022-07-10T08:53:09;8.15;;;1.27;;
29422;SDS011;16399;51.686;8.684;2022-07-10T08:56:20;7.62;;;1.25;;
29422;SDS011;16399;51.686;8.684;2022-07-10T08:59:23;7.47;;;1.02;;
29422;SDS011;16399;51.686;8.684;2022-07-10T09:02:25;4.17;;;0.90;;
29422;SDS011;16399;51.686;8.684;2022-07-10T09:05:27;8.35;;;1.82;;
29422;SDS011;16399;51.686;8.684;2022-07-10T09:08:30;4.20;;;1.15;;
29422;SDS011;16399;51.686;8.684;2022-07-10T09:11:33;6.42;;;1.10;;
29422;SDS011;16399;51.686;8.684;2022-07-10T09:14:36;8.93;;;1.70;;
29422;SDS011;16399;51.686;8.684;2022-07-10T09:18:01;10.38;;;1.10;;
29422;SDS011;16399;51.686;8.684;2022-07-10T09:20:53;8.58;;;1.42;;
29422;SDS011;16399;51.686;8.684;2022-07-10T09:23:55;8.25;;;0.98;;
29422;SDS011;16399;51.686;8.684;2022-07-10T09:30:06;9.20;;;1.40;;
29422;SDS011;16399;51.686;8.684;2022-07-10T09:33:41;6.00;;;1.10;;
29422;SDS011;16399;51.686;8.684;2022-07-10T09:36:23;4.58;;;0.95;;
29422;SDS011;16399;51.686;8.684;2022-07-10T09:39:25;7.47;;;1.60;;
29422;SDS011;16399;51.686;8.684;2022-07-10T09:42:28;8.78;;;1.10;;
29422;SDS011;16399;51.686;8.684;2022-07-10T09:45:35;5.45;;;0.85;;
29422;SDS011;16399;51.686;8.684;2022-07-10T09:48:38;6.58;;;1.05;;
29422;SDS011;16399;51.686;8.684;2022-07-10T09:51:42;5.65;;;1.10;;
29422;SDS011;16399;51.686;8.684;2022-07-10T09:54:46;4.85;;;1.20;;
29422;SDS011;16399;51.686;8.684;2022-07-10T09:57:51;7.00;;;1.05;;
29422;SDS011;16399;51.686;8.684;2022-07-10T10:00:55;4.90;;;1.10;;
29422;SDS011;16399;51.686;8.684;2022-07-10T10:03:59;8.13;;;1.35;;
29422;SDS011;16399;51.686;8.684;2022-07-10T10:07:03;5.20;;;1.10;;
29422;SDS011;16399;51.686;8.684;2022-07-10T10:10:10;8.53;;;1.55;;
29422;SDS011;16399;51.686;8.684;2022-07-10T10:13:17;6.22;;;1.00;;
29422;SDS011;16399;51.686;8.684;2022-07-10T10:16:21;5.50;;;0.93;;
29422;SDS011;16399;51.686;8.684;2022-07-10T10:19:25;6.47;;;1.10;;
29422;SDS011;16399;51.686;8.684;2022-07-10T10:22:46;4.92;;;1.20;;
29422;SDS011;16399;51.686;8.684;2022-07-10T10:25:51;7.12;;;1.30;;
29422;SDS011;16399;51.686;8.684;2022-07-10T10:31:58;4.92;;;0.93;;
29422;SDS011;16399;51.686;8.684;2022-07-10T10:35:00;4.08;;;1.15;;
29422;SDS011;16399;51.686;8.684;2022-07-10T10:38:04;4.97;;;0.90;;
29422;SDS011;16399;51.686;8.684;2022-07-10T10:41:42;7.40;;;1.17;;
29422;SDS011;16399;51.686;8.684;2022-07-10T10:44:27;7.22;;;1.12;;
29422;SDS011;16399;51.686;8.684;2022-07-10T10:50:39;4.47;;;0.88;;
29422;SDS011;16399;51.686;8.684;2022-07-10T10:53:42;6.70;;;1.00;;
29422;SDS011;16399;51.686;8.684;2022-07-10T10:56:44;2.85;;;0.95;;
29422;SDS011;16399;51.686;8.684;2022-07-10T10:59:47;7.83;;;1.30;;
29422;SDS011;16399;51.686;8.684;2022-07-10T11:02:55;5.37;;;1.10;;
29422;SDS011;16399;51.686;8.684;2022-07-10T11:05:58;4.80;;;0.88;;
29422;SDS011;16399;51.686;8.684;2022-07-10T11:09:05;6.47;;;1.10;;
29422;SDS011;16399;51.686;8.684;2022-07-10T11:12:08;11.97;;;1.25;;
29422;SDS011;16399;51.686;8.684;2022-07-10T11:15:15;9.00;;;1.55;;
29422;SDS011;16399;51.686;8.684;2022-07-10T11:18:18;4.20;;;1.05;;
29422;SDS011;16399;51.686;8.684;2022-07-10T11:21:26;7.28;;;1.00;;
29422;SDS011;16399;51.686;8.684;2022-07-10T11:28:03;6.78;;;1.70;;
29422;SDS011;16399;51.686;8.684;2022-07-10T11:34:10;5.37;;;1.40;;
29422;SDS011;16399;51.686;8.684;2022-07-10T11:37:16;6.67;;;1.52;;
29422;SDS011;16399;51.686;8.684;2022-07-10T11:40:18;6.37;;;1.50;;
29422;SDS011;16399;51.686;8.684;2022-07-10T11:43:21;4.83;;;0.95;;
29422;SDS011;16399;51.686;8.684;2022-07-10T11:46:28;8.98;;;1.45;;
29422;SDS011;16399;51.686;8.684;2022-07-10T11:49:34;5.05;;;1.07;;
29422;SDS011;16399;51.686;8.684;2022-07-10T11:52:40;3.25;;;1.02;;
29422;SDS011;16399;51.686;8.684;2022-07-10T11:55:42;4.12;;;0.82;;
29422;SDS011;16399;51.686;8.684;2022-07-10T11:58:52;4.72;;;1.00;;
29422;SDS011;16399;51.686;8.684;2022-07-10T12:01:58;4.97;;;0.90;;
29422;SDS011;16399;51.686;8.684;2022-07-10T12:05:00;6.30;;;1.05;;
29422;SDS011;16399;51.686;8.684;2022-07-10T12:08:06;3.25;;;1.20;;
29422;SDS011;16399;51.686;8.684;2022-07-10T12:11:15;6.05;;;1.62;;
29422;SDS011;16399;51.686;8.684;2022-07-10T12:14:21;7.05;;;1.22;;
29422;SDS011;16399;51.686;8.684;2022-07-10T12:17:24;9.50;;;1.27;;
29422;SDS011;16399;51.686;8.684;2022-07-10T12:20:26;5.42;;;0.95;;
29422;SDS011;16399;51.686;8.684;2022-07-10T12:23:29;4.92;;;1.00;;
29422;SDS011;16399;51.686;8.684;2022-07-10T12:26:35;4.37;;;0.90;;
29422;SDS011;16399;51.686;8.684;2022-07-10T12:29:38;4.87;;;1.10;;
29422;SDS011;16399;51.686;8.684;2022-07-10T12:32:41;5.08;;;1.00;;
29422;SDS011;16399;51.686;8.684;2022-07-10T12:35:47;4.97;;;1.10;;
29422;SDS011;16399;51.686;8.684;2022-07-10T12:38:57;2.60;;;0.88;;
29422;SDS011;16399;51.686;8.684;2022-07-10T12:42:03;5.50;;;1.30;;
29422;SDS011;16399;51.686;8.684;2022-07-10T12:45:13;4.67;;;1.20;;
29422;SDS011;16399;51.686;8.684;2022-07-10T12:48:23;4.42;;;1.30;;
29422;SDS011;16399;51.686;8.684;2022-07-10T12:51:26;4.97;;;1.27;;
29422;SDS011;16399;51.686;8.684;2022-07-10T12:54:33;4.65;;;1.42;;
29422;SDS011;16399;51.686;8.684;2022-07-10T13:00:56;3.55;;;1.15;;
29422;SDS011;16399;51.686;8.684;2022-07-10T13:04:01;2.33;;;0.90;;
29422;SDS011;16399;51.686;8.684;2022-07-10T13:07:12;2.20;;;0.90;;
29422;SDS011;16399;51.686;8.684;2022-07-10T13:10:35;2.80;;;0.85;;
29422;SDS011;16399;51.686;8.684;2022-07-10T13:13:38;2.65;;;0.90;;
29422;SDS011;16399;51.686;8.684;2022-07-10T13:16:41;2.35;;;0.72;;
29422;SDS011;16399;51.686;8.684;2022-07-10T13:19:43;7.62;;;1.77;;
29422;SDS011;16399;51.686;8.684;2022-07-10T13:22:45;2.12;;;0.95;;
29422;SDS011;16399;51.686;8.684;2022-07-10T13:25:51;1.02;;;0.50;;
29422;SDS011;16399;51.686;8.684;2022-07-10T13:28:54;1.05;;;0.55;;
29422;SDS011;16399;51.686;8.684;2022-07-10T13:31:57;1.65;;;0.80;;
29422;SDS011;16399;51.686;8.684;2022-07-10T13:34:59;1.32;;;0.50;;
29422;SDS011;16399;51.686;8.684;2022-07-10T13:38:02;2.72;;;0.75;;
29422;SDS011;16399;51.686;8.684;2022-07-10T13:41:05;2.73;;;0.90;;
29422;SDS011;16399;51.686;8.684;2022-07-10T13:44:08;2.55;;;0.60;;
29422;SDS011;16399;51.686;8.684;2022-07-10T13:47:10;2.30;;;0.75;;
29422;SDS011;16399;51.686;8.684;2022-07-10T13:50:12;2.20;;;0.93;;
29422;SDS011;16399;51.686;8.684;2022-07-10T13:53:15;1.77;;;0.90;;
29422;SDS011;16399;51.686;8.684;2022-07-10T13:56:18;2.90;;;0.88;;
29422;SDS011;16399;51.686;8.684;2022-07-10T13:59:21;2.47;;;1.10;;
29422;SDS011;16399;51.686;8.684;2022-07-10T14:02:23;2.62;;;0.80;;
29422;SDS011;16399;51.686;8.684;2022-07-10T14:05:26;2.95;;;0.80;;
29422;SDS011;16399;51.686;8.684;2022-07-10T14:08:28;2.40;;;1.05;;
29422;SDS011;16399;51.686;8.684;2022-07-10T14:11:31;2.42;;;0.85;;
29422;SDS011;16399;51.686;8.684;2022-07-10T14:14:34;2.33;;;0.90;;
29422;SDS011;16399;51.686;8.684;2022-07-10T14:17:36;2.58;;;1.00;;
29422;SDS011;16399;51.686;8.684;2022-07-10T14:20:38;3.72;;;1.20;;
29422;SDS011;16399;51.686;8.684;2022-07-10T14:23:42;3.20;;;1.30;;
29422;SDS011;16399;51.686;8.684;2022-07-10T14:26:45;2.92;;;1.22;;
29422;SDS011;16399;51.686;8.684;2022-07-10T14:29:47;3.50;;;1.52;;
29422;SDS011;16399;51.686;8.684;2022-07-10T14:32:49;3.02;;;1.37;;
29422;SDS011;16399;51.686;8.684;2022-07-10T14:35:52;2.65;;;1.12;;
29422;SDS011;16399;51.686;8.684;2022-07-10T14:38:54;5.65;;;1.27;;
29422;SDS011;16399;51.686;8.684;2022-07-10T14:41:57;2.85;;;1.30;;
29422;SDS011;16399;51.686;8.684;2022-07-10T14:45:00;4.72;;;1.47;;
29422;SDS011;16399;51.686;8.684;2022-07-10T14:48:02;3.25;;;1.22;;
29422;SDS011;16399;51.686;8.684;2022-07-10T14:51:05;3.05;;;1.35;;
29422;SDS011;16399;51.686;8.684;2022-07-10T14:54:08;2.58;;;1.07;;
29422;SDS011;16399;51.686;8.684;2022-07-10T14:57:11;2.37;;;1.25;;
29422;SDS011;16399;51.686;8.684;2022-07-10T15:00:14;4.65;;;1.30;;
29422;SDS011;16399;51.686;8.684;2022-07-10T15:03:18;2.58;;;1.10;;
29422;SDS011;16399;51.686;8.684;2022-07-10T15:06:20;3.27;;;1.52;;
29422;SDS011;16399;51.686;8.684;2022-07-10T15:09:23;3.15;;;1.40;;
29422;SDS011;16399;51.686;8.684;2022-07-10T15:12:25;2.67;;;1.35;;
29422;SDS011;16399;51.686;8.684;2022-07-10T15:15:27;5.03;;;1.60;;
29422;SDS011;16399;51.686;8.684;2022-07-10T15:18:32;3.45;;;1.20;;
29422;SDS011;16399;51.686;8.684;2022-07-10T15:21:34;3.83;;;1.40;;
29422;SDS011;16399;51.686;8.684;2022-07-10T15:24:36;2.20;;;1.20;;
29422;SDS011;16399;51.686;8.684;2022-07-10T15:27:40;3.08;;;1.30;;
29422;SDS011;16399;51.686;8.684;2022-07-10T15:30:42;3.33;;;1.22;;
29422;SDS011;16399;51.686;8.684;2022-07-10T15:33:45;3.60;;;1.40;;
29422;SDS011;16399;51.686;8.684;2022-07-10T15:36:47;3.08;;;1.10;;
29422;SDS011;16399;51.686;8.684;2022-07-10T15:39:50;1.60;;;0.90;;
29422;SDS011;16399;51.686;8.684;2022-07-10T15:42:53;2.20;;;1.07;;
29422;SDS011;16399;51.686;8.684;2022-07-10T15:45:56;1.85;;;0.93;;
29422;SDS011;16399;51.686;8.684;2022-07-10T15:48:59;2.22;;;1.00;;
29422;SDS011;16399;51.686;8.684;2022-07-10T15:52:02;1.55;;;0.90;;
29422;SDS011;16399;51.686;8.684;2022-07-10T15:55:05;2.12;;;0.80;;
29422;SDS011;16399;51.686;8.684;2022-07-10T15:58:07;2.75;;;0.90;;
29422;SDS011;16399;51.686;8.684;2022-07-10T16:01:11;1.52;;;0.85;;
29422;SDS011;16399;51.686;8.684;2022-07-10T16:04:13;1.77;;;0.80;;
29422;SDS011;16399;51.686;8.684;2022-07-10T16:07:16;1.87;;;0.60;;
29422;SDS011;16399;51.686;8.684;2022-07-10T16:10:18;1.40;;;0.60;;
29422;SDS011;16399;51.686;8.684;2022-07-10T16:13:20;1.98;;;0.78;;
29422;SDS011;16399;51.686;8.684;2022-07-10T16:16:23;1.80;;;0.70;;
29422;SDS011;16399;51.686;8.684;2022-07-10T16:19:25;0.85;;;0.50;;
29422;SDS011;16399;51.686;8.684;2022-07-10T16:22:28;1.32;;;0.50;;
29422;SDS011;16399;51.686;8.684;2022-07-10T16:25:31;2.90;;;0.50;;
29422;SDS011;16399;51.686;8.684;2022-07-10T16:28:51;0.42;;;0.40;;
29422;SDS011;16399;51.686;8.684;2022-07-10T16:31:54;1.42;;;0.72;;
29422;SDS011;16399;51.686;8.684;2022-07-10T16:34:57;1.62;;;0.65;;
29422;SDS011;16399;51.686;8.684;2022-07-10T16:38:01;0.62;;;0.45;;
29422;SDS011;16399;51.686;8.684;2022-07-10T16:41:10;1.45;;;0.40;;
29422;SDS011;16399;51.686;8.684;2022-07-10T16:44:13;0.93;;;0.40;;
29422;SDS011;16399;51.686;8.684;2022-07-10T16:47:15;0.55;;;0.40;;
29422;SDS011;16399;51.686;8.684;2022-07-10T16:50:17;2.47;;;0.70;;
29422;SDS011;16399;51.686;8.684;2022-07-10T16:53:20;1.47;;;0.70;;
29422;SDS011;16399;51.686;8.684;2022-07-10T16:56:23;0.88;;;0.60;;
29422;SDS011;16399;51.686;8.684;2022-07-10T16:59:26;0.82;;;0.50;;
29422;SDS011;16399;51.686;8.684;2022-07-10T17:02:29;1.65;;;0.60;;
29422;SDS011;16399;51.686;8.684;2022-07-10T17:05:32;1.35;;;0.53;;
29422;SDS011;16399;51.686;8.684;2022-07-10T17:08:36;2.02;;;0.60;;
29422;SDS011;16399;51.686;8.684;2022-07-10T17:11:38;1.90;;;0.50;;
29422;SDS011;16399;51.686;8.684;2022-07-10T17:14:40;0.85;;;0.47;;
29422;SDS011;16399;51.686;8.684;2022-07-10T17:17:43;0.82;;;0.50;;
29422;SDS011;16399;51.686;8.684;2022-07-10T17:20:46;1.42;;;0.53;;
29422;SDS011;16399;51.686;8.684;2022-07-10T17:23:48;1.35;;;0.60;;
29422;SDS011;16399;51.686;8.684;2022-07-10T17:26:51;1.40;;;0.47;;
29422;SDS011;16399;51.686;8.684;2022-07-10T17:29:53;1.72;;;0.50;;
29422;SDS011;16399;51.686;8.684;2022-07-10T17:32:56;2.08;;;0.70;;
29422;SDS011;16399;51.686;8.684;2022-07-10T17:35:58;1.65;;;0.60;;
29422;SDS011;16399;51.686;8.684;2022-07-10T17:39:00;1.37;;;0.70;;
29422;SDS011;16399;51.686;8.684;2022-07-10T17:42:05;2.45;;;0.65;;
29422;SDS011;16399;51.686;8.684;2022-07-10T17:45:07;0.70;;;0.70;;
29422;SDS011;16399;51.686;8.684;2022-07-10T17:51:13;1.07;;;0.50;;
29422;SDS011;16399;51.686;8.684;2022-07-10T17:54:16;1.85;;;0.70;;
29422;SDS011;16399;51.686;8.684;2022-07-10T17:57:18;2.40;;;0.70;;
29422;SDS011;16399;51.686;8.684;2022-07-10T18:00:20;1.30;;;0.60;;
29422;SDS011;16399;51.686;8.684;2022-07-10T18:03:23;1.37;;;0.88;;
29422;SDS011;16399;51.686;8.684;2022-07-10T18:06:26;1.75;;;0.70;;
29422;SDS011;16399;51.686;8.684;2022-07-10T18:09:28;0.65;;;0.60;;
29422;SDS011;16399;51.686;8.684;2022-07-10T18:12:31;3.80;;;1.20;;
29422;SDS011;16399;51.686;8.684;2022-07-10T18:15:33;3.10;;;1.20;;
29422;SDS011;16399;51.686;8.684;2022-07-10T18:18:36;2.02;;;0.93;;
29422;SDS011;16399;51.686;8.684;2022-07-10T18:21:39;2.35;;;0.82;;
29422;SDS011;16399;51.686;8.684;2022-07-10T18:24:42;3.40;;;0.90;;
29422;SDS011;16399;51.686;8.684;2022-07-10T18:27:44;1.22;;;0.70;;
29422;SDS011;16399;51.686;8.684;2022-07-10T18:30:47;1.42;;;0.65;;
29422;SDS011;16399;51.686;8.684;2022-07-10T18:33:49;3.67;;;0.90;;
29422;SDS011;16399;51.686;8.684;2022-07-10T18:37:10;1.35;;;0.75;;
29422;SDS011;16399;51.686;8.684;2022-07-10T18:40:12;3.12;;;0.95;;
29422;SDS011;16399;51.686;8.684;2022-07-10T18:43:15;1.12;;;0.70;;
29422;SDS011;16399;51.686;8.684;2022-07-10T18:46:17;4.75;;;0.80;;
29422;SDS011;16399;51.686;8.684;2022-07-10T18:49:19;1.20;;;0.65;;
29422;SDS011;16399;51.686;8.684;2022-07-10T18:52:22;1.77;;;0.70;;